LFQQLFAT

Guest
Details From LFQQ - Lille Lesquin
To LFAT - Le Touquet Paris Plage
Flight Number -
Tags decoded
Created
Modified
Stats Distance 58 nm / 108 km
Max Altitude 0 ft / 0 m
Waypoints 3
Social Downloads 2
Likes 0
Share VATSIM

Download

Looking for another format? Having issues loading an existing format? Contact us
Advertisement - Login to hide

Notes

Requested: LFQQ BNE LFAT

Route

LFQQ BNE LFAT

ID Type Via Altitude (ft/m) Position (lat/lon) Dist (leg/tot) Name
O LFQQ APT - 0 / 0 50.56633 / 3.09538 - / 0 nm Lille Lesquin
BNE VOR - 0 / 0 50.62478 / 1.90711 45 / 45 nm BOULOGNE SUR MER VOR
O LFAT APT - 0 / 0 50.51586 / 1.62273 12 / 58 nm Le Touquet Paris Plage

Altitude Profile

Advertisement - Login to hide

LFQQ

Details ICAO LFQQ (LIL)
Name Lille Lesquin
Region France
Timezone Europe/Paris (UTC+2.0)
Stats Elevation 154 ft / 47 m (AMSL)
Location 50.566300° 3.095390°
Runways 2
Magnetic Variation 0.820° E

METAR

LFQQ 171730Z AUTO 36005KT CAVOK 16/11 Q1020 NOSIG

Decode

TAF

TAF LFQQ 171700Z 1718/1824 01005KT CAVOK TEMPO 1808/1810 BKN013

Decode

Departure Runways

ID Width Length Bearing (true/mag) Surface Threshold Overrun Markings Lighting
02 98 ft / 30 m 5,172 ft / 1,576 m 14.83° / 14.01° ASPHALT 0 ft / 0 m 0 ft / 0 m APP EDGE THRESHOLD
08 146 ft / 45 m 9,250 ft / 2,819 m 77.36° / 76.54° ASPHALT 0 ft / 0 m 0 ft / 0 m PREC-APP CENTERLINE EDGE THRESHOLD CALVERT-ILS REIL-OMNI
20 98 ft / 30 m 5,172 ft / 1,576 m 194.84° / 194.01° ASPHALT 0 ft / 0 m 0 ft / 0 m APP EDGE THRESHOLD
26 146 ft / 45 m 9,250 ft / 2,819 m 257.39° / 256.57° ASPHALT 919 ft / 280 m 0 ft / 0 m PREC-APP CENTERLINE EDGE THRESHOLD CALVERT-ILS TDZ

LFAT

Details ICAO LFAT (LTQ)
Name Le Touquet Paris Plage
Region France
Timezone Europe/Paris (UTC+2.0)
Stats Elevation 35 ft / 11 m (AMSL)
Location 50.515900° 1.622730°
Runways 2
Magnetic Variation 0.353° E

METAR

LFAT 171730Z AUTO 34004KT CAVOK 14/11 Q1020 NOSIG

Decode

TAF

Not found

Destination Runways

ID Width Length Bearing (true/mag) Surface Threshold Overrun Markings Lighting
07 120 ft / 37 m 1,949 ft / 594 m 60.65° / 60.30° ASPHALT 0 ft / 0 m 0 ft / 0 m NONE
14 131 ft / 40 m 6,050 ft / 1,844 m 133.54° / 133.19° ASPHALT 0 ft / 0 m 0 ft / 0 m APP CENTERLINE EDGE THRESHOLD RAIL REIL-OMNI
25 120 ft / 37 m 1,949 ft / 594 m 240.66° / 240.30° ASPHALT 750 ft / 229 m 0 ft / 0 m APP
32 131 ft / 40 m 6,050 ft / 1,844 m 313.56° / 313.20° ASPHALT 492 ft / 150 m 0 ft / 0 m APP CENTERLINE EDGE THRESHOLD REIL-OMNI

Approach Navaids

Runway Type Ident Frequency Range Bearing (true/mag) Slope Elevation
14 OM OM - - 133.55° / 133.19 ° - 35 ft / 11 m (AMSL)
14 DME LT 110.15 MHz 27 nm / 50 km - - 35 ft / 11 m (AMSL)
14 LOC-ILS LT 110.15 MHz 27 nm / 50 km 134.00° / 133.65 ° - 35 ft / 11 m (AMSL)
14 GS LT 110.15 MHz 27 nm / 50 km 134.00° / 133.65 ° 3.00° 35 ft / 11 m (AMSL)

Popular Alternatives